Time;durP1;ratioP1;P1;durP2;ratioP2;P2;SDS_P1;SDS_P2;PMS_P1;PMS_P2;Temp;Humidity;BMP_temperature;BMP_pressure;BME280_temperature;BME280_humidity;BME280_pressure;Samples;Min_cycle;Max_cycle;Signal;HPM_P1;HPM_P2
2023/02/17 00:01:18;;;;;;;5.27;3.90;;;;;;;5.47;55.34;98609.00;6327513;28;20236;-35
2023/02/17 00:04:20;;;;;;;5.97;4.13;;;;;;;5.28;55.88;98603.31;6328863;28;20717;-35
2023/02/17 00:07:22;;;;;;;6.23;4.47;;;;;;;5.16;56.17;98596.84;6327498;28;20373;-35
2023/02/17 00:10:24;;;;;;;7.60;4.63;;;;;;;4.86;57.27;98598.69;6329146;28;20736;-35
2023/02/17 00:13:26;;;;;;;6.60;4.43;;;;;;;4.72;57.38;98600.34;6314720;28;20269;-34
2023/02/17 00:16:29;;;;;;;6.43;4.30;;;;;;;4.11;57.72;98523.16;6314814;28;20695;-35
2023/02/17 00:19:31;;;;;;;5.80;4.13;;;;;;;4.35;58.44;98596.75;6320404;28;20308;-35
2023/02/17 00:22:32;;;;;;;5.93;4.13;;;;;;;4.20;59.06;98598.56;6309583;28;20229;-35
2023/02/17 00:25:37;;;;;;;7.10;4.43;;;;;;;4.20;58.86;98593.28;6327732;28;20321;-35
2023/02/17 00:28:39;;;;;;;6.83;4.53;;;;;;;3.65;59.67;98546.94;6328169;28;20659;-35
2023/02/17 00:31:41;;;;;;;7.17;4.80;;;;;;;3.87;60.40;98596.16;6307625;28;20718;-35
2023/02/17 00:34:44;;;;;;;7.90;4.50;;;;;;;3.90;60.40;98594.19;6330157;27;20362;-35
2023/02/17 00:37:47;;;;;;;6.70;4.63;;;;;;;3.94;60.39;98596.31;6345129;27;20635;-34
2023/02/17 00:40:50;;;;;;;5.43;3.73;;;;;;;3.87;60.78;98596.16;6339898;27;20229;-34
2023/02/17 00:43:52;;;;;;;6.33;4.00;;;;;;;3.77;61.12;98597.41;6338325;27;20228;-34
2023/02/17 00:46:55;;;;;;;7.73;4.50;;;;;;;3.57;61.36;98595.22;6349801;27;20407;-34
2023/02/17 00:49:57;;;;;;;7.50;4.70;;;;;;;3.52;62.11;98599.38;6331676;27;20236;-34
2023/02/17 00:53:00;;;;;;;6.33;4.03;;;;;;;3.40;62.17;98598.13;6352083;27;20577;-35
2023/02/17 00:56:03;;;;;;;5.97;4.43;;;;;;;3.22;63.07;98591.31;6353960;27;20365;-34
2023/02/17 00:59:07;;;;;;;6.37;4.20;;;;;;;3.22;63.53;98591.31;6352545;27;20225;-35
2023/02/17 01:02:09;;;;;;;8.90;4.90;;;;;;;3.24;63.31;98591.94;6325267;28;20573;-34
2023/02/17 01:05:11;;;;;;;6.17;4.23;;;;;;;3.24;63.16;98589.31;6331321;27;20240;-34
2023/02/17 01:08:15;;;;;;;8.07;5.00;;;;;;;3.34;62.92;98589.91;6340391;27;20269;-34
2023/02/17 01:11:19;;;;;;;8.60;5.30;;;;;;;3.25;63.30;98582.22;6346594;27;20305;-34
2023/02/17 01:14:21;;;;;;;9.13;5.10;;;;;;;3.23;63.81;98573.69;6333488;27;20233;-34
2023/02/17 01:17:23;;;;;;;7.70;5.13;;;;;;;3.25;63.81;98571.69;6328056;27;20847;-34
2023/02/17 01:20:28;;;;;;;9.00;5.43;;;;;;;3.05;64.00;98559.00;6352040;27;20723;-35
2023/02/17 01:23:29;;;;;;;7.67;5.20;;;;;;;3.15;64.29;98571.91;6310634;28;20248;-34
2023/02/17 01:26:33;;;;;;;7.13;4.43;;;;;;;3.16;63.92;98565.69;6349553;27;20227;-35
2023/02/17 01:29:35;;;;;;;10.23;5.50;;;;;;;2.97;64.94;98559.03;6340688;27;20233;-34
2023/02/17 01:32:37;;;;;;;9.63;5.43;;;;;;;2.97;64.86;98548.50;6341702;27;20267;-34
2023/02/17 01:35:39;;;;;;;9.33;4.93;;;;;;;2.99;64.70;98545.69;6351844;27;20224;-34
2023/02/17 01:38:41;;;;;;;8.07;5.60;;;;;;;2.95;65.09;98552.28;6326853;28;20225;-35
2023/02/17 01:41:43;;;;;;;9.70;5.87;;;;;;;2.93;64.85;98546.38;6309808;28;20657;-34
2023/02/17 01:45:17;;;;;;;10.07;5.50;;;;;;;2.83;65.63;98541.31;6340382;28;20382;-34
2023/02/17 01:48:43;;;;;;;8.83;5.23;;;;;;;2.78;65.44;98547.09;6351665;28;20660;-34
2023/02/17 01:51:58;;;;;;;8.87;5.40;;;;;;;2.70;65.82;98533.97;6351193;28;20257;-34
2023/02/17 01:55:09;;;;;;;10.83;6.43;;;;;;;2.55;66.31;98528.59;6351852;28;20374;-35
2023/02/17 01:58:14;;;;;;;9.87;5.50;;;;;;;2.34;66.72;98499.41;6319084;28;20239;-34
2023/02/17 02:01:17;;;;;;;12.10;6.40;;;;;;;2.47;67.19;98527.81;6332857;28;20352;-34
2023/02/17 02:04:23;;;;;;;8.97;5.20;;;;;;;2.33;67.81;98514.38;6352582;28;20307;-34
2023/02/17 02:07:30;;;;;;;11.03;5.87;;;;;;;2.38;68.25;98516.50;6318386;28;20615;-34
2023/02/17 02:10:32;;;;;;;13.17;6.40;;;;;;;2.47;68.44;98514.66;6343113;28;20234;-34
2023/02/17 02:13:34;;;;;;;10.50;6.30;;;;;;;3.10;65.88;98506.66;6333690;28;20228;-34
2023/02/17 02:17:22;;;;;;;10.90;5.70;;;;;;;3.22;66.33;98503.59;6335847;28;20701;-34
2023/02/17 02:20:46;;;;;;;10.87;6.23;;;;;;;3.35;66.27;98495.97;6351131;28;20232;-34
2023/02/17 02:24:15;;;;;;;7.80;5.53;;;;;;;3.10;66.34;98448.75;6350693;28;20236;-34
2023/02/17 02:27:30;;;;;;;9.90;5.27;;;;;;;3.49;66.61;98497.00;6347889;27;20224;-34
2023/02/17 02:31:30;;;;;;;10.87;6.23;;;;;;;3.67;65.71;98499.31;6341375;27;20582;-34
2023/02/17 02:34:46;;;;;;;9.27;5.07;;;;;;;3.92;64.95;98492.03;6240877;28;20737;-34
2023/02/17 02:38:06;;;;;;;8.13;5.50;;;;;;;3.96;64.95;98483.59;6252339;28;20335;-34
2023/02/17 02:41:19;;;;;;;8.23;4.97;;;;;;;3.87;65.39;98492.56;6248462;28;20742;-34
2023/02/17 02:44:21;;;;;;;6.70;4.93;;;;;;;3.80;65.49;98495.09;6253273;28;20228;-34
2023/02/17 02:47:53;;;;;;;8.67;5.73;;;;;;;3.65;66.59;98488.16;6231686;28;20237;-34
2023/02/17 02:51:06;;;;;;;8.43;4.83;;;;;;;3.66;66.47;98495.06;6234459;28;20240;-34
2023/02/17 02:54:09;;;;;;;8.13;5.23;;;;;;;3.62;66.78;98482.22;6246714;28;20224;-35
2023/02/17 02:57:56;;;;;;;8.87;5.57;;;;;;;3.47;68.01;98491.91;6228903;28;20705;-34
2023/02/17 03:01:38;;;;;;;8.57;5.47;;;;;;;3.57;67.39;98492.47;6234717;28;20245;-34
2023/02/17 03:04:43;;;;;;;8.47;5.53;;;;;;;3.72;67.23;98489.88;6251220;27;20639;-34
2023/02/17 03:08:02;;;;;;;8.27;4.83;;;;;;;3.84;67.24;98490.28;6331675;27;20225;-34
2023/02/17 03:11:05;;;;;;;7.50;4.80;;;;;;;3.95;67.14;98486.41;6332433;27;20700;-34
2023/02/17 03:14:13;;;;;;;6.43;4.47;;;;;;;4.09;66.54;98483.78;6355232;27;20234;-34
2023/02/17 03:17:15;;;;;;;7.23;4.67;;;;;;;4.17;66.50;98485.50;6334361;27;20370;-35
2023/02/17 03:20:17;;;;;;;6.57;4.77;;;;;;;4.32;65.64;98472.31;6351420;27;20228;-35
2023/02/17 03:23:20;;;;;;;5.20;3.97;;;;;;;4.40;65.62;98475.69;6319170;28;20880;-35
2023/02/17 03:26:23;;;;;;;8.10;5.17;;;;;;;4.35;66.01;98485.16;6327920;27;20229;-34
2023/02/17 03:29:25;;;;;;;5.27;3.80;;;;;;;4.49;65.13;98481.69;6328002;27;20241;-35
2023/02/17 03:32:27;;;;;;;8.07;4.70;;;;;;;4.66;62.32;98469.13;6339207;27;20233;-34
2023/02/17 03:35:29;;;;;;;6.83;4.23;;;;;;;5.08;61.74;98484.25;6354044;27;20358;-34
2023/02/17 03:38:31;;;;;;;7.23;4.77;;;;;;;5.22;61.71;98487.00;6308031;27;20226;-35
2023/02/17 03:41:33;;;;;;;6.77;4.67;;;;;;;5.26;61.91;98485.63;6327539;28;20231;-35
2023/02/17 03:44:35;;;;;;;7.63;4.03;;;;;;;5.27;62.13;98492.53;6354134;27;20224;-34
2023/02/17 03:47:37;;;;;;;5.57;4.07;;;;;;;5.31;61.85;98484.06;6355196;27;20239;-35
2023/02/17 03:50:39;;;;;;;7.23;4.20;;;;;;;5.17;61.96;98467.28;6343933;27;20874;-35
2023/02/17 03:53:42;;;;;;;5.70;3.87;;;;;;;5.37;61.77;98496.53;6343309;27;20721;-35
2023/02/17 03:56:44;;;;;;;7.07;4.73;;;;;;;5.43;61.23;98497.59;6345613;27;20239;-35
2023/02/17 03:59:46;;;;;;;6.57;4.23;;;;;;;5.57;60.91;98491.44;6334981;27;20232;-34
2023/02/17 04:02:48;;;;;;;4.67;3.23;;;;;;;5.65;60.56;98485.19;6353922;27;20233;-35
2023/02/17 04:05:50;;;;;;;5.70;3.30;;;;;;;5.89;58.72;98483.94;6335489;27;20236;-35
2023/02/17 04:08:52;;;;;;;5.37;3.70;;;;;;;6.07;58.22;98488.81;6354175;27;20230;-35
2023/02/17 04:11:54;;;;;;;5.13;3.43;;;;;;;6.19;57.15;98484.59;6352734;27;20233;-34
2023/02/17 04:14:56;;;;;;;11.37;4.17;;;;;;;6.11;54.88;98456.50;6336801;27;20327;-35
2023/02/17 04:17:58;;;;;;;8.43;4.23;;;;;;;7.02;51.80;98482.78;6342297;27;20334;-34
2023/02/17 04:21:00;;;;;;;7.57;4.37;;;;;;;7.32;49.50;98442.69;6340550;27;20222;-35
2023/02/17 04:24:03;;;;;;;5.57;4.20;;;;;;;7.72;49.14;98462.88;6334742;27;20596;-35
2023/02/17 04:27:05;;;;;;;7.60;4.53;;;;;;;7.93;49.28;98482.28;6353891;27;20307;-35
2023/02/17 04:30:08;;;;;;;9.13;4.73;;;;;;;8.25;47.40;98467.34;6340321;27;20221;-35
2023/02/17 04:33:14;;;;;;;7.20;4.37;;;;;;;8.08;47.87;98419.22;6326087;28;20217;-35
2023/02/17 04:36:17;;;;;;;7.53;4.33;;;;;;;8.55;47.11;98457.09;6352808;27;20213;-35
2023/02/17 04:39:19;;;;;;;7.70;3.97;;;;;;;8.62;47.26;98460.53;6353763;27;20248;-35
2023/02/17 04:42:21;;;;;;;7.03;4.40;;;;;;;8.52;46.05;98423.81;6345510;27;20590;-35
2023/02/17 04:45:23;;;;;;;6.30;3.93;;;;;;;8.71;46.44;98451.28;6353594;27;21009;-34
2023/02/17 04:48:25;;;;;;;6.20;4.23;;;;;;;8.88;45.61;98445.53;6333155;27;20299;-35
2023/02/17 04:51:27;;;;;;;8.23;4.20;;;;;;;8.90;45.60;98436.28;6334465;27;20232;-35
2023/02/17 04:54:29;;;;;;;7.87;3.57;;;;;;;8.95;45.70;98449.75;6352921;27;20225;-35
2023/02/17 04:57:31;;;;;;;8.07;4.07;;;;;;;8.88;46.17;98446.34;6328418;28;20228;-35
2023/02/17 05:00:34;;;;;;;5.37;3.47;;;;;;;8.91;45.99;98443.22;6346467;27;20351;-35
2023/02/17 05:03:36;;;;;;;5.33;3.87;;;;;;;8.96;46.14;98446.06;6348438;27;20220;-35
2023/02/17 05:06:38;;;;;;;5.10;3.33;;;;;;;8.98;45.83;98433.41;6335263;27;20229;-35
2023/02/17 05:09:40;;;;;;;5.37;3.70;;;;;;;8.99;46.13;98437.69;6342992;27;20232;-35
2023/02/17 05:12:42;;;;;;;6.40;3.40;;;;;;;8.99;46.30;98440.34;6351055;27;20238;-34
2023/02/17 05:15:45;;;;;;;5.67;3.40;;;;;;;8.93;47.07;98446.50;6337392;27;20604;-35
2023/02/17 05:18:47;;;;;;;4.50;2.97;;;;;;;8.81;47.97;98437.56;6332560;27;20712;-35
2023/02/17 05:21:50;;;;;;;5.30;3.00;;;;;;;8.70;48.13;98432.91;6352367;27;20695;-35
2023/02/17 05:24:52;;;;;;;3.53;2.97;;;;;;;8.51;49.15;98432.78;6327203;28;20692;-35
2023/02/17 05:27:54;;;;;;;4.43;3.07;;;;;;;8.34;49.58;98425.47;6350105;27;20368;-35
2023/02/17 05:30:56;;;;;;;2.80;2.43;;;;;;;8.10;49.92;98397.75;6350334;27;20256;-35
2023/02/17 05:33:58;;;;;;;3.70;2.50;;;;;;;8.08;49.84;98413.06;6332359;27;20233;-35
2023/02/17 05:37:00;;;;;;;3.60;2.77;;;;;;;8.01;50.03;98421.84;6353180;27;20698;-35
2023/02/17 05:40:03;;;;;;;4.33;3.00;;;;;;;7.89;50.33;98412.91;6345594;27;20794;-34
2023/02/17 05:43:05;;;;;;;3.47;2.60;;;;;;;7.67;51.18;98425.56;6332743;28;20227;-35
2023/02/17 05:46:07;;;;;;;3.93;2.70;;;;;;;7.56;51.52;98417.41;6352567;28;20238;-35
2023/02/17 05:49:10;;;;;;;3.50;2.50;;;;;;;7.39;52.38;98409.03;6354661;28;20236;-35
2023/02/17 05:52:12;;;;;;;4.37;2.70;;;;;;;7.36;52.01;98407.63;6339950;28;20229;-34
2023/02/17 05:55:14;;;;;;;4.47;3.50;;;;;;;7.41;51.31;98402.53;6347902;28;20224;-35
2023/02/17 05:58:16;;;;;;;4.10;2.80;;;;;;;7.55;50.96;98407.84;6334145;28;20231;-34
2023/02/17 06:01:19;;;;;;;5.23;3.30;;;;;;;7.58;51.04;98410.06;6342941;27;20449;-35
2023/02/17 06:04:21;;;;;;;4.90;3.30;;;;;;;7.39;51.99;98419.63;6343619;27;20239;-35
2023/02/17 06:07:23;;;;;;;5.00;2.87;;;;;;;7.13;52.96;98418.59;6357053;27;20305;-35
2023/02/17 06:10:25;;;;;;;6.10;3.27;;;;;;;7.16;52.23;98430.63;6354894;27;20227;-35
2023/02/17 06:13:26;;;;;;;5.97;2.80;;;;;;;6.82;53.83;98440.31;6333464;27;20231;-35
2023/02/17 06:16:29;;;;;;;3.30;2.43;;;;;;;6.88;53.38;98433.41;6332439;27;20242;-35
2023/02/17 06:19:31;;;;;;;4.60;2.60;;;;;;;7.36;51.07;98428.81;6354501;27;20257;-35
2023/02/17 06:22:33;;;;;;;4.73;3.23;;;;;;;7.47;50.93;98436.16;6356182;27;20458;-35
2023/02/17 06:25:35;;;;;;;3.67;2.90;;;;;;;7.56;51.36;98428.03;6345568;27;20278;-35
2023/02/17 06:28:37;;;;;;;5.43;3.10;;;;;;;7.61;51.16;98418.44;6343935;27;20233;-35
2023/02/17 06:31:39;;;;;;;6.53;3.60;;;;;;;7.83;50.15;98428.81;6332450;27;20239;-35
2023/02/17 06:34:41;;;;;;;5.70;2.90;;;;;;;8.08;49.87;98424.50;6335997;27;20216;-35
2023/02/17 06:37:43;;;;;;;3.77;2.80;;;;;;;8.12;49.86;98424.91;6355864;27;20345;-35
2023/02/17 06:40:45;;;;;;;4.00;2.70;;;;;;;8.16;49.96;98423.47;6335534;27;20236;-35
2023/02/17 06:43:47;;;;;;;4.00;2.47;;;;;;;8.15;50.01;98420.00;6357175;27;20259;-34
2023/02/17 06:46:49;;;;;;;3.70;2.63;;;;;;;7.90;50.84;98406.56;6337151;27;20691;-35
2023/02/17 06:49:51;;;;;;;3.30;2.33;;;;;;;7.87;51.64;98416.78;6333989;27;20330;-35
2023/02/17 06:52:53;;;;;;;2.97;2.57;;;;;;;7.80;51.83;98416.78;6345705;27;20371;-35
2023/02/17 06:55:55;;;;;;;4.60;2.70;;;;;;;7.74;51.82;98418.44;6355218;27;20259;-34
2023/02/17 06:58:58;;;;;;;3.60;2.37;;;;;;;7.48;51.48;98362.75;6354660;27;20310;-35
2023/02/17 07:02:00;;;;;;;6.93;3.23;;;;;;;7.82;50.59;98405.97;6354672;27;20323;-35
2023/02/17 07:05:04;;;;;;;4.17;2.83;;;;;;;8.11;49.88;98407.34;6356040;27;20236;-35
2023/02/17 07:08:06;;;;;;;4.03;2.27;;;;;;;8.17;50.51;98402.00;6330273;27;20305;-35
2023/02/17 07:11:10;;;;;;;3.97;2.90;;;;;;;8.25;50.04;98391.19;6353402;27;20232;-34
2023/02/17 07:14:12;;;;;;;4.13;2.43;;;;;;;8.21;48.73;98359.94;6354647;27;20648;-35
2023/02/17 07:17:14;;;;;;;5.30;2.90;;;;;;;8.49;47.44;98368.47;6351284;27;20309;-35
2023/02/17 07:20:16;;;;;;;8.77;2.73;;;;;;;9.41;44.37;98403.47;6355689;27;20288;-35
2023/02/17 07:23:18;;;;;;;3.43;2.73;;;;;;;9.93;43.41;98400.56;6333589;27;20319;-35
2023/02/17 07:26:21;;;;;;;4.23;2.70;;;;;;;10.15;43.29;98398.28;6335365;27;20301;-35
2023/02/17 07:29:23;;;;;;;4.33;2.53;;;;;;;10.18;44.20;98390.69;6350560;27;20221;-35
2023/02/17 07:32:25;;;;;;;3.60;2.33;;;;;;;10.24;43.04;98373.84;6354792;27;20487;-34
2023/02/17 07:35:27;;;;;;;5.20;2.37;;;;;;;10.57;43.16;98394.75;6345834;27;20245;-35
2023/02/17 07:38:29;;;;;;;6.40;2.53;;;;;;;10.67;42.96;98391.56;6349979;27;20317;-35
2023/02/17 07:41:33;;;;;;;4.10;2.27;;;;;;;11.05;42.18;98422.44;6336241;27;20367;-35
2023/02/17 07:44:42;;;;;;;6.30;2.50;;;;;;;11.04;42.09;98370.97;6313767;28;20326;-35
2023/02/17 07:47:44;;;;;;;2.47;1.93;;;;;;;11.53;41.82;98414.34;6340315;27;20228;-35
2023/02/17 07:50:46;;;;;;;6.10;2.37;;;;;;;11.72;42.12;98395.53;6328525;28;20709;-35
2023/02/17 07:53:49;;;;;;;6.20;2.50;;;;;;;12.05;41.34;98401.16;6333377;27;20233;-35
2023/02/17 07:56:51;;;;;;;3.70;1.97;;;;;;;12.31;41.44;98383.00;6353442;27;20236;-35
2023/02/17 07:59:53;;;;;;;7.73;2.50;;;;;;;12.46;40.85;98377.97;6312779;28;20229;-35
2023/02/17 08:02:55;;;;;;;5.57;1.93;;;;;;;12.70;40.39;98401.97;6349263;27;20321;-35
2023/02/17 08:05:57;;;;;;;4.63;2.10;;;;;;;12.73;40.23;98394.28;6348484;27;20251;-35
2023/02/17 08:15:42;;;;;;;4.73;1.87;;;;;;;12.38;41.00;98410.41;6340144;27;20264;-35
2023/02/17 08:18:44;;;;;;;6.17;1.73;;;;;;;12.18;41.75;98364.56;6339246;27;20718;-35
2023/02/17 08:21:46;;;;;;;3.93;2.03;;;;;;;12.35;41.62;98413.53;6346181;27;20616;-35
2023/02/17 08:24:49;;;;;;;6.20;2.20;;;;;;;12.43;41.10;98415.88;6352797;27;20278;-35
2023/02/17 08:27:53;;;;;;;3.83;1.90;;;;;;;12.46;42.10;98418.03;6353758;27;20706;-35
2023/02/17 08:30:55;;;;;;;6.63;2.50;;;;;;;12.24;41.48;98411.72;6331435;27;20712;-35
2023/02/17 08:34:00;;;;;;;4.33;2.00;;;;;;;12.34;41.45;98412.72;6328532;27;20221;-35
2023/02/17 08:37:04;;;;;;;5.27;2.27;;;;;;;12.43;40.61;98417.72;6349362;27;20743;-35
2023/02/17 08:40:07;;;;;;;6.90;2.20;;;;;;;12.55;40.37;98413.16;6346060;27;20235;-35
2023/02/17 08:43:09;;;;;;;4.73;2.50;;;;;;;12.68;40.96;98420.09;6344230;27;20766;-35
2023/02/17 08:46:13;;;;;;;4.80;1.90;;;;;;;12.59;40.60;98415.13;6340879;27;20374;-35
2023/02/17 08:49:17;;;;;;;5.07;2.33;;;;;;;12.65;40.79;98405.34;6329850;27;20233;-35
2023/02/17 08:52:19;;;;;;;3.47;2.17;;;;;;;12.71;40.76;98396.41;6331863;27;20255;-35
2023/02/17 08:55:22;;;;;;;3.17;2.00;;;;;;;12.72;41.53;98398.00;6352537;27;20228;-35
2023/02/17 08:58:24;;;;;;;5.23;2.13;;;;;;;12.74;41.96;98409.28;6354112;27;20324;-35
2023/02/17 09:01:26;;;;;;;3.73;2.33;;;;;;;12.60;42.12;98379.31;6352054;27;20235;-35
2023/02/17 09:04:28;;;;;;;7.23;2.47;;;;;;;12.75;42.89;98405.53;6352517;27;20265;-35
2023/02/17 09:07:30;;;;;;;4.37;1.87;;;;;;;12.56;42.59;98393.38;6336070;27;20270;-35
2023/02/17 09:10:32;;;;;;;5.33;2.33;;;;;;;12.53;42.97;98402.72;6340605;27;20395;-35
2023/02/17 09:13:35;;;;;;;3.80;2.50;;;;;;;12.72;42.47;98397.19;6347250;27;20321;-35
2023/02/17 09:16:37;;;;;;;3.60;1.80;;;;;;;13.16;42.29;98396.44;6332861;27;20710;-36
2023/02/17 09:19:42;;;;;;;5.70;2.20;;;;;;;13.36;41.35;98384.47;6334139;27;20232;-35
2023/02/17 09:22:44;;;;;;;4.07;1.80;;;;;;;13.53;41.35;98412.06;6351643;27;20240;-35
2023/02/17 09:25:46;;;;;;;4.67;1.90;;;;;;;13.78;41.75;98382.19;6328389;27;20225;-36
2023/02/17 09:28:48;;;;;;;4.50;1.83;;;;;;;13.79;42.27;98393.72;6321233;28;20735;-35
2023/02/17 09:31:50;;;;;;;5.03;2.00;;;;;;;13.68;42.17;98390.06;6343608;27;20610;-35
2023/02/17 09:34:52;;;;;;;4.63;1.90;;;;;;;13.66;43.05;98358.19;6350567;27;20224;-35
2023/02/17 09:37:54;;;;;;;8.30;2.33;;;;;;;13.81;44.03;98378.22;6343313;27;20719;-35
2023/02/17 09:41:13;;;;;;;3.67;1.93;;;;;;;13.84;43.55;98393.78;6339205;27;20763;-35
2023/02/17 09:44:25;;;;;;;3.60;1.67;;;;;;;13.58;45.06;98379.19;6295576;28;20213;-35
2023/02/17 09:47:59;;;;;;;4.67;2.20;;;;;;;13.47;46.33;98378.25;6351555;28;20307;-35
2023/02/17 09:51:30;;;;;;;4.43;2.27;;;;;;;12.99;45.96;98397.44;6329900;28;20213;-34
2023/02/17 09:55:09;;;;;;;5.67;2.03;;;;;;;12.84;47.02;98392.59;6342946;28;20762;-35
2023/02/17 09:58:19;;;;;;;5.33;2.20;;;;;;;12.37;51.87;98379.41;6329778;28;20734;-35
2023/02/17 10:01:25;;;;;;;5.13;2.30;;;;;;;12.13;52.33;98395.47;6333842;28;20613;-35
2023/02/17 10:04:36;;;;;;;3.87;1.93;;;;;;;11.80;54.39;98392.53;6351731;28;20770;-35
2023/02/17 10:07:46;;;;;;;5.70;1.93;;;;;;;11.66;54.58;98391.13;6351387;28;20235;-35
2023/02/17 10:11:00;;;;;;;6.60;2.40;;;;;;;11.51;56.90;98403.06;6338974;28;20229;-35
2023/02/17 10:14:08;;;;;;;4.13;2.10;;;;;;;11.38;56.16;98381.97;6349229;28;20232;-35
2023/02/17 10:17:32;;;;;;;6.47;2.07;;;;;;;11.52;56.30;98394.00;6330744;28;20712;-35
2023/02/17 10:20:58;;;;;;;6.00;2.50;;;;;;;11.27;56.82;98366.72;6348538;28;20672;-35
2023/02/17 10:24:00;;;;;;;3.37;2.27;;;;;;;11.28;55.15;98374.50;6351524;28;20259;-35
2023/02/17 10:27:27;;;;;;;5.13;2.00;;;;;;;11.32;54.19;98370.31;6351156;28;20529;-35
2023/02/17 10:30:41;;;;;;;2.90;1.97;;;;;;;11.27;53.66;98359.53;6334892;28;20252;-35
2023/02/17 10:34:07;;;;;;;2.70;1.80;;;;;;;11.53;54.08;98360.97;6325851;28;20236;-35
2023/02/17 10:37:22;;;;;;;6.07;2.33;;;;;;;11.74;54.57;98348.09;6300989;28;20770;-35
2023/02/17 10:40:26;;;;;;;2.53;1.63;;;;;;;11.73;52.65;98349.16;6317113;28;20321;-35
2023/02/17 10:43:31;;;;;;;6.87;1.90;;;;;;;11.78;51.93;98342.06;6322939;28;20286;-35
2023/02/17 10:46:34;;;;;;;3.63;1.70;;;;;;;11.82;51.09;98350.44;6350821;27;20227;-35
2023/02/17 10:49:44;;;;;;;6.40;2.00;;;;;;;11.90;50.46;98360.75;6352737;27;20235;-35
2023/02/17 10:52:47;;;;;;;3.93;1.60;;;;;;;11.87;50.03;98331.84;6332043;27;20252;-35
2023/02/17 10:56:01;;;;;;;4.83;1.60;;;;;;;11.96;51.00;98316.28;6359410;27;20232;-35
2023/02/17 10:59:36;;;;;;;3.67;1.67;;;;;;;11.84;52.55;98316.31;6355964;27;20312;-35
2023/02/17 11:02:56;;;;;;;3.70;1.90;;;;;;;11.65;53.93;98315.59;6204740;28;20232;-35
2023/02/17 11:06:03;;;;;;;3.37;1.77;;;;;;;11.28;53.94;98265.16;6184712;28;20219;-35
2023/02/17 11:09:22;;;;;;;3.73;1.83;;;;;;;11.48;53.26;98304.81;6227422;28;20277;-34
2023/02/17 11:12:31;;;;;;;5.63;2.17;;;;;;;11.35;53.14;98276.50;6228271;28;20322;-35
2023/02/17 11:15:36;;;;;;;2.87;1.50;;;;;;;11.59;53.30;98311.19;6221424;28;20596;-34
2023/02/17 11:18:46;;;;;;;6.43;2.00;;;;;;;11.51;52.42;98292.88;6218604;28;20227;-35
2023/02/17 11:21:51;;;;;;;6.60;2.00;;;;;;;11.45;53.84;98307.13;6223900;28;20711;-35
2023/02/17 11:25:00;;;;;;;3.47;1.50;;;;;;;11.54;51.64;98298.56;6227941;28;20515;-35
2023/02/17 11:28:10;;;;;;;3.40;1.63;;;;;;;11.55;53.70;98280.69;6226380;28;20239;-35
2023/02/17 11:31:28;;;;;;;7.73;1.80;;;;;;;11.49;53.68;98289.63;6208909;28;20235;-35
2023/02/17 11:34:33;;;;;;;2.57;1.60;;;;;;;11.61;52.49;98288.56;6224634;28;20721;-35
2023/02/17 11:37:42;;;;;;;5.40;1.77;;;;;;;11.70;54.17;98293.56;6241633;27;20239;-35
2023/02/17 11:40:59;;;;;;;5.70;2.03;;;;;;;11.69;54.07;98289.25;6342848;27;20450;-35
2023/02/17 11:44:01;;;;;;;5.23;1.87;;;;;;;11.67;53.34;98292.16;6328888;28;20434;-35
2023/02/17 11:47:37;;;;;;;5.00;1.40;;;;;;;11.57;53.43;98275.91;6353846;27;20714;-35
2023/02/17 11:50:39;;;;;;;2.53;1.27;;;;;;;11.68;52.76;98260.97;6329435;27;20228;-35
2023/02/17 11:53:51;;;;;;;4.20;1.67;;;;;;;11.66;53.37;98247.81;6352394;27;20672;-35
2023/02/17 11:56:59;;;;;;;3.30;1.20;;;;;;;11.69;54.04;98263.38;6353696;27;20243;-35
2023/02/17 12:00:10;;;;;;;5.03;1.37;;;;;;;11.70;53.99;98250.84;6337516;27;20742;-35
2023/02/17 12:03:33;;;;;;;7.10;2.07;;;;;;;11.78;53.58;98253.16;6331922;27;20214;-35
2023/02/17 12:06:54;;;;;;;5.23;1.67;;;;;;;11.79;54.32;98281.47;6343509;27;20224;-35
2023/02/17 12:10:04;;;;;;;4.33;1.30;;;;;;;11.80;54.64;98243.06;6354923;27;20319;-35
2023/02/17 12:13:30;;;;;;;4.43;1.17;;;;;;;11.84;55.10;98246.91;6353997;27;20233;-35
2023/02/17 12:16:41;;;;;;;3.33;1.07;;;;;;;11.76;55.15;98252.56;6326617;28;20234;-35
2023/02/17 12:19:58;;;;;;;3.87;1.30;;;;;;;11.82;55.37;98262.34;6337549;27;20235;-35
2023/02/17 12:23:38;;;;;;;1.80;1.03;;;;;;;11.84;55.42;98237.03;6354403;27;20239;-35
2023/02/17 12:26:58;;;;;;;2.10;1.17;;;;;;;11.87;55.12;98251.75;6345960;27;20228;-35
2023/02/17 12:30:28;;;;;;;1.73;0.93;;;;;;;11.86;54.93;98234.13;6348503;27;20225;-35
2023/02/17 12:33:51;;;;;;;2.83;0.90;;;;;;;11.92;55.75;98245.72;6329747;27;20293;-35
2023/02/17 12:36:57;;;;;;;2.10;1.30;;;;;;;11.91;55.12;98250.25;6336902;27;20639;-35
2023/02/17 12:40:07;;;;;;;2.67;1.33;;;;;;;11.95;55.86;98255.94;6347899;27;20308;-35
2023/02/17 12:43:28;;;;;;;4.80;1.50;;;;;;;11.91;55.15;98244.09;6330772;27;20236;-35
2023/02/17 12:46:40;;;;;;;3.33;1.23;;;;;;;11.83;56.08;98238.09;6334317;27;20374;-35
2023/02/17 12:49:59;;;;;;;2.93;1.30;;;;;;;11.92;55.78;98265.25;6352705;27;20247;-35
2023/02/17 12:53:10;;;;;;;3.00;1.23;;;;;;;11.93;55.33;98240.16;6302810;28;20299;-35
2023/02/17 12:56:32;;;;;;;1.67;1.10;;;;;;;12.03;56.10;98231.53;6284810;28;20763;-35
2023/02/17 12:59:37;;;;;;;3.60;1.40;;;;;;;12.10;56.27;98235.69;6315325;28;20722;-35
2023/02/17 13:02:39;;;;;;;2.33;1.50;;;;;;;12.19;55.57;98232.63;6350476;27;20862;-35
2023/02/17 13:05:53;;;;;;;4.97;1.53;;;;;;;12.16;54.83;98225.91;6352531;27;20247;-35
2023/02/17 13:09:07;;;;;;;4.90;0.93;;;;;;;12.13;54.84;98213.84;6336060;27;20228;-35
2023/02/17 13:12:17;;;;;;;3.03;1.30;;;;;;;12.24;55.59;98219.38;6341252;27;20224;-35
2023/02/17 13:15:30;;;;;;;2.17;0.90;;;;;;;12.25;55.77;98219.13;6336213;27;20209;-35
2023/02/17 13:18:35;;;;;;;2.10;0.90;;;;;;;12.23;55.36;98217.75;6338900;27;20227;-35
2023/02/17 13:21:52;;;;;;;2.37;1.20;;;;;;;12.10;55.08;98208.97;6344584;27;20601;-35
2023/02/17 13:24:54;;;;;;;1.23;0.93;;;;;;;12.11;56.53;98212.44;6329310;27;20240;-35
2023/02/17 13:27:59;;;;;;;2.53;0.90;;;;;;;12.25;55.79;98223.66;6331071;27;20224;-35
2023/02/17 13:31:17;;;;;;;1.80;0.90;;;;;;;12.22;55.65;98229.50;6351332;27;20251;-35
2023/02/17 13:34:30;;;;;;;1.50;0.90;;;;;;;12.31;55.45;98214.69;6349774;27;20228;-35
2023/02/17 13:37:32;;;;;;;1.53;0.80;;;;;;;12.28;55.80;98207.16;6351361;27;20236;-35
2023/02/17 13:40:39;;;;;;;3.87;1.00;;;;;;;12.26;55.37;98203.91;6340911;27;20275;-35
2023/02/17 13:43:42;;;;;;;4.50;0.90;;;;;;;12.36;56.19;98212.09;6311295;28;20233;-35
2023/02/17 13:46:46;;;;;;;1.30;0.90;;;;;;;12.38;55.63;98207.34;6343542;28;20231;-35
2023/02/17 13:49:52;;;;;;;2.83;1.10;;;;;;;12.37;55.53;98203.06;6350540;28;20602;-35
2023/02/17 13:52:55;;;;;;;1.97;1.00;;;;;;;12.43;55.54;98209.31;6329130;28;20228;-35
2023/02/17 13:56:03;;;;;;;1.53;0.73;;;;;;;12.47;55.90;98205.91;6345888;28;20228;-35
2023/02/17 13:59:08;;;;;;;1.63;0.90;;;;;;;12.55;55.93;98208.16;6347772;28;20228;-35
2023/02/17 14:02:19;;;;;;;3.67;1.07;;;;;;;12.26;55.41;98159.31;6329581;28;20891;-35
2023/02/17 14:05:43;;;;;;;2.23;1.00;;;;;;;12.40;55.95;98207.91;6352969;28;20265;-35
2023/02/17 14:08:45;;;;;;;4.27;1.13;;;;;;;12.42;55.50;98194.31;6350474;28;20224;-35
2023/02/17 14:11:48;;;;;;;2.30;1.13;;;;;;;12.30;55.85;98178.34;6351191;28;20246;-35
2023/02/17 14:14:50;;;;;;;2.17;1.13;;;;;;;12.22;55.86;98198.25;6350543;28;20232;-35
2023/02/17 14:17:53;;;;;;;1.87;1.03;;;;;;;12.22;55.84;98184.09;6328644;28;20708;-35
2023/02/17 14:21:08;;;;;;;2.73;1.00;;;;;;;12.23;55.15;98188.38;6341477;28;20235;-35
2023/02/17 14:24:42;;;;;;;1.90;1.10;;;;;;;12.27;55.34;98170.81;6355170;27;20252;-35
2023/02/17 14:27:47;;;;;;;2.90;1.10;;;;;;;12.34;54.85;98160.78;6228302;28;20236;-35
2023/02/17 14:30:49;;;;;;;1.60;1.30;;;;;;;12.33;53.96;98161.84;6220496;28;20779;-35
2023/02/17 14:33:54;;;;;;;3.77;1.33;;;;;;;12.36;53.97;98183.56;6220545;28;20450;-35
2023/02/17 14:37:22;;;;;;;5.63;1.40;;;;;;;12.42;53.46;98165.75;6207994;28;20228;-35
2023/02/17 14:40:24;;;;;;;3.23;1.10;;;;;;;12.48;53.09;98147.94;6207046;28;20298;-35
2023/02/17 14:43:26;;;;;;;4.70;1.00;;;;;;;12.56;52.89;98147.50;6228112;28;20315;-35
2023/02/17 14:46:28;;;;;;;2.07;1.00;;;;;;;12.68;51.90;98132.22;6228453;28;20259;-35
2023/02/17 14:49:31;;;;;;;3.13;1.20;;;;;;;12.74;52.12;98146.47;6227508;28;20774;-35
2023/02/17 14:52:40;;;;;;;3.47;1.27;;;;;;;12.75;51.86;98135.50;6210195;28;20724;-35